Terminal Aerodrome Forecast
Issued by NWS

Home | Current Version | Previous Version | Text Only | Print | Product List | Glossary On
Versions: 1 2 3 4 5 6 7 8 9 10 11 12 13 14 15
000
FTUS43 KOAX 180531
TAFBFF
TAF
KBFF 180531Z 1806/1906 31017G25KT P6SM BKN050 OVC100
     FM181000 31015KT P6SM SKC
     FM181600 31018G26KT P6SM SCT250
     FM190000 30007KT P6SM SKC=

USA.gov is the U.S. government's official web portal to all federal, state and local government web resources and services.